WetterOnline ( https://www.wetteronline.at )

Wetter aktuell Emden

Aktuelles Wetter: Emden (5m)

6-stündlich | Neueste Meldungen
Ortszeit Temperatur Wetter
Mo, 14.10. 2:00 14.7° C leicht bewölkt
So, 13.10. 20:00 19.3° C wolkig
So, 13.10. 14:00 17.0° C Sprühregen
So, 13.10. 8:00 11.0° C bedeckt
So, 13.10. 2:00 10.8° C Sprühregen
Sa, 12.10. 20:00 11.6° C Sprühregen
Sa, 12.10. 14:00 13.3° C bedeckt
Sa, 12.10. 8:00 10.8° C Sprühregen
Ortszeit Temperatur Wetter
Mo, 14.10. 2:30 14.3° C wolkenlos
Mo, 14.10. 2:20 14.3° C wolkenlos
Mo, 14.10. 2:10 14.4° C wolkenlos
Mo, 14.10. 2:00 14.7° C leicht bewölkt
Mo, 14.10. 1:40 15.0° C wolkig
Mo, 14.10. 1:30 15.2° C wolkig
Mo, 14.10. 1:00 15.3° C leicht bewölkt
Mo, 14.10. 0:30 15.6° C wolkig
Mo, 14.10. 0:00 16.0° C bewölkt
So, 13.10. 23:30 16.3° C bewölkt
So, 13.10. 23:00 16.6° C wolkig
Ortszeit Relative Feuchte Sichtweite
Mo, 14.10. 2:00 82% 35 km
So, 13.10. 20:00 80% 45 km
So, 13.10. 14:00 96% 12 km
So, 13.10. 8:00 98% 7 km
So, 13.10. 2:00 98% 8 km
Sa, 12.10. 20:00 97% 13 km
Sa, 12.10. 14:00 84% >70 km
Sa, 12.10. 8:00 95% 13 km
Ortszeit Relative Feuchte Sichtweite
Mo, 14.10. 2:30 82% 40 km
Mo, 14.10. 2:20 82% -
Mo, 14.10. 2:10 83% -
Mo, 14.10. 2:00 82% 35 km
Mo, 14.10. 1:40 81% -
Mo, 14.10. 1:30 80% 45 km
Mo, 14.10. 1:00 81% 45 km
Mo, 14.10. 0:30 81% 50 km
Mo, 14.10. 0:00 82% 45 km
So, 13.10. 23:30 81% 60 km
So, 13.10. 23:00 79% >70 km
Ortszeit Niederschlagsmenge Niederschlagsart
Mo, 14.10. 2:00 0.4 l/m2 in 6 Std. Regen
So, 13.10. 20:00 0.8 l/m2 in 12 Std. Regen
So, 13.10. 14:00 0.8 l/m2 in 6 Std. Regen
So, 13.10. 8:00 4 l/m2 in 12 Std. Regen
So, 13.10. 2:00 3 l/m2 in 6 Std. Regen
Sa, 12.10. 20:00 2 l/m2 in 12 Std. Regen
Sa, 12.10. 14:00 0.6 l/m2 in 6 Std. Regen
Sa, 12.10. 8:00 6 l/m2 in 12 Std. Regen
Ortszeit Niederschlagsmenge Niederschlagsart
Mo, 14.10. 2:30 keine Meldung -
Mo, 14.10. 2:20 keine Meldung -
Mo, 14.10. 2:10 keine Meldung -
Mo, 14.10. 2:00 0.0 l/m2 in 1 Std. Regen
Mo, 14.10. 1:40 keine Meldung -
Mo, 14.10. 1:30 0.0 l/m2 in 1 Std. -
Mo, 14.10. 1:00 0.0 l/m2 in 1 Std. -
Mo, 14.10. 0:30 0.0 l/m2 in 1 Std. -
Mo, 14.10. 0:00 0.1 l/m2 in 1 Std. Regen
So, 13.10. 23:30 0.1 l/m2 in 1 Std. Schneeregen
So, 13.10. 23:00 0.1 l/m2 in 1 Std. Regen
Ortszeit Stärke Spitze Richtung
km/h Bft. km/h Grad Sektor
Mo, 14.10. 2:00 18 3 58 240° SW
So, 13.10. 20:00 18 3 36 200° S
So, 13.10. 14:00 13 3 24 160° S
So, 13.10. 8:00 11 2 18 90° O
So, 13.10. 2:00 7 2 18 160° S
Sa, 12.10. 20:00 11 2 30 200° S
Sa, 12.10. 14:00 14 3 29 230° SW
Sa, 12.10. 8:00 9 2 35 220° SW
Ortszeit Stärke Spitze Richtung
km/h Bft. km/h Grad Sektor
Mo, 14.10. 2:30 19 3 31 240° SW
Mo, 14.10. 2:20 19 3 - 240° SW
Mo, 14.10. 2:10 18 3 - 240° SW
Mo, 14.10. 2:00 18 3 40 240° SW
Mo, 14.10. 1:40 22 4 - 240° SW
Mo, 14.10. 1:30 18 3 36 230° SW
Mo, 14.10. 1:00 20 4 37 230° SW
Mo, 14.10. 0:30 22 4 36 240° SW
Mo, 14.10. 0:00 19 3 39 230° SW
So, 13.10. 23:30 18 3 40 230° SW
So, 13.10. 23:00 22 4 47 230° SW
Ortszeit Untergrenze Bedeckung Gattung
total tief tief mittel hoch
Mo, 14.10. 2:00 630 m 3/8 3/8 - - -
So, 13.10. 20:00 1290 m 8/8 3/8 - - -
So, 13.10. 14:00 1290 m 8/8 1/8 - - -
So, 13.10. 8:00 150 m 8/8 8/8 - - -
So, 13.10. 2:00 60 m 8/8 8/8 - - -
Sa, 12.10. 20:00 150 m 8/8 8/8 - - -
Sa, 12.10. 14:00 1800 m 8/8 8/8 - - -
Sa, 12.10. 8:00 510 m 8/8 8/8 - - -
Ortszeit Bedeckungsgrad in Achtel und Wolkenuntergrenze
Mo, 14.10. 2:30 keine Wolken
Mo, 14.10. 2:20 keine Wolken
Mo, 14.10. 2:10 keine Wolken
Mo, 14.10. 2:00 3(630m) 3(750m)
Mo, 14.10. 1:40 5(660m) 6(900m)
Mo, 14.10. 1:30 5(690m) 6(870m)
Mo, 14.10. 1:00 1(660m) 3(10500m)
Mo, 14.10. 0:30 3(630m) 5(870m) 6(10500m)
Mo, 14.10. 0:00 7(600m) 8(3000m) 8(3600m)
So, 13.10. 23:30 6(630m) 8(3300m) 8(3900m)
So, 13.10. 23:00 1(660m) 8(3300m) 8(3900m)
Ortszeit Luftdruck NN (hPa) Tendenz (hPa in 3 Std.)
Mo, 14.10. 2:00 1009 + 2,8
So, 13.10. 20:00 1004 - 0,1
So, 13.10. 14:00 1006 - 2,0
So, 13.10. 8:00 1009 - 1,1
So, 13.10. 2:00 1011 0,0
Sa, 12.10. 20:00 1010 + 0,5
Sa, 12.10. 14:00 1009 + 1,2
Sa, 12.10. 8:00 1006 + 0,5
Ortszeit Luftdruck NN (hPa) Tendenz (hPa in 3 Std.)
Mo, 14.10. 2:30 1010 + 2,8
Mo, 14.10. 2:20 1010 keine Meldung
Mo, 14.10. 2:10 1010 keine Meldung
Mo, 14.10. 2:00 1009 + 2,8
Mo, 14.10. 1:40 1009 keine Meldung
Mo, 14.10. 1:30 1009 + 2,7
Mo, 14.10. 1:00 1008 + 2,6
Mo, 14.10. 0:30 1008 + 3,2
Mo, 14.10. 0:00 1008 + 3,0
So, 13.10. 23:30 1007 + 2,5
So, 13.10. 23:00 1007 + 2,6
Ortszeit Schneehöhe (cm)
Mo, 14.10. 2:00 0
So, 13.10. 20:00 0
So, 13.10. 14:00 0
So, 13.10. 8:00 0
So, 13.10. 2:00 0
Sa, 12.10. 20:00 0
Sa, 12.10. 14:00 0
Sa, 12.10. 8:00 0
Ortszeit Schneehöhe (cm)
Mo, 14.10. 2:30 0
Mo, 14.10. 2:20 0
Mo, 14.10. 2:10 0
Mo, 14.10. 2:00 0
Mo, 14.10. 1:40 0
Mo, 14.10. 1:30 0
Mo, 14.10. 1:00 0
Mo, 14.10. 0:30 0
Mo, 14.10. 0:00 0
So, 13.10. 23:30 0
So, 13.10. 23:00 0
Link zu dieser Seite / Seite empfehlen

Das Wetter in ...